Station Historical Data
Daily Summary for January 2, 2018 Units:  Both    English   Metric
« Previous Day
Next Day »
Daily Weekly Monthly Yearly Custom
  High: Low: Average:
Temperature: 17.5 °F /  -8.1 °C 10.7 °F /  -11.8 °C 14.6 °F /  -9.7 °C
Dew Point: 14.6 °F /  -9.7 °C 6.6 °F /  -14.1 °C 10.3 °F /  -12.1 °C
Humidity: 88% 76% 83%
Wind Speed: 32.0mph /  51.5km/h - 9.3mph /  15km/h
Wind Gust: 34.0mph /  54.7km/h - -
Wind- - WSW
Pressure: 30.46 in /  1031.4 hPa 30.23 in /  1023.6 hPa -
Precipitation: 0.00 in /  0 mm    
Historical Graphs
 
 
Tabular Data for January 2, 2018
Time Temperature Dew Point Pressure Wind Wind Speed Wind Gust Humidity Rainfall Rate (Hourly)
00:04 10.7 °F /  -11.8 °C 6.6 °F /  -14.1 °C 30.46in /  1031.4hPa West 6.0mph /  9.7km/h 11.0mph /  17.7km/h 83% 0.00in /  0mm
00:09 10.7 °F /  -11.8 °C 6.6 °F /  -14.1 °C 30.46in /  1031.4hPa West 6.0mph /  9.7km/h 14.0mph /  22.5km/h 83% 0.00in /  0mm
00:14 10.8 °F /  -11.8 °C 6.7 °F /  -14.1 °C 30.46in /  1031.4hPa WNW 4.0mph /  6.4km/h 13.0mph /  20.9km/h 83% 0.00in /  0mm
00:15 10.8 °F /  -11.8 °C 6.7 °F /  -14.1 °C 30.46in /  1031.4hPa West 7.0mph /  11.3km/h 14.0mph /  22.5km/h 83% 0.00in /  0mm
00:24 10.8 °F /  -11.8 °C 6.7 °F /  -14.1 °C 30.46in /  1031.4hPa WNW 12.0mph /  19.3km/h 12.0mph /  19.3km/h 83% 0.00in /  0mm
00:29 10.8 °F /  -11.8 °C 6.7 °F /  -14.1 °C 30.45in /  1031hPa West 9.0mph /  14.5km/h 12.0mph /  19.3km/h 83% 0.00in /  0mm
00:34 10.8 °F /  -11.8 °C 6.7 °F /  -14.1 °C 30.45in /  1031hPa WNW 6.0mph /  9.7km/h 12.0mph /  19.3km/h 83% 0.00in /  0mm
00:39 10.9 °F /  -11.7 °C 6.8 °F /  -14 °C 30.45in /  1031hPa NW 9.0mph /  14.5km/h 14.0mph /  22.5km/h 83% 0.00in /  0mm
00:49 10.9 °F /  -11.7 °C 6.8 °F /  -14 °C 30.45in /  1031hPa West 6.0mph /  9.7km/h 11.0mph /  17.7km/h 83% 0.00in /  0mm
00:54 10.9 °F /  -11.7 °C 6.8 °F /  -14 °C 30.45in /  1031hPa West 6.0mph /  9.7km/h 12.0mph /  19.3km/h 83% 0.00in /  0mm
00:59 11.0 °F /  -11.7 °C 6.6 °F /  -14.1 °C 30.44in /  1030.7hPa West 6.0mph /  9.7km/h 12.0mph /  19.3km/h 82% 0.00in /  0mm
01:04 11.0 °F /  -11.7 °C 6.6 °F /  -14.1 °C 30.44in /  1030.7hPa West 6.0mph /  9.7km/h 11.0mph /  17.7km/h 82% 0.00in /  0mm
01:09 11.0 °F /  -11.7 °C 6.6 °F /  -14.1 °C 30.44in /  1030.7hPa West 6.0mph /  9.7km/h 9.0mph /  14.5km/h 82% 0.00in /  0mm
01:14 11.1 °F /  -11.6 °C 6.7 °F /  -14.1 °C 30.44in /  1030.7hPa West 6.0mph /  9.7km/h 13.0mph /  20.9km/h 82% 0.00in /  0mm
01:19 11.2 °F /  -11.6 °C 6.8 °F /  -14 °C 30.44in /  1030.7hPa WSW 6.0mph /  9.7km/h 13.0mph /  20.9km/h 82% 0.00in /  0mm
01:24 11.3 °F /  -11.5 °C 6.9 °F /  -13.9 °C 30.43in /  1030.4hPa West 4.0mph /  6.4km/h 12.0mph /  19.3km/h 82% 0.00in /  0mm
01:29 11.4 °F /  -11.4 °C 7.0 °F /  -13.9 °C 30.43in /  1030.4hPa West 7.0mph /  11.3km/h 11.0mph /  17.7km/h 82% 0.00in /  0mm
01:34 11.4 °F /  -11.4 °C 7.0 °F /  -13.9 °C 30.43in /  1030.4hPa WNW 8.0mph /  12.9km/h 9.0mph /  14.5km/h 82% 0.00in /  0mm
01:44 11.6 °F /  -11.3 °C 7.2 °F /  -13.8 °C 30.43in /  1030.4hPa West 2.0mph /  3.2km/h 10.0mph /  16.1km/h 82% 0.00in /  0mm
01:49 11.7 °F /  -11.3 °C 7.3 °F /  -13.7 °C 30.43in /  1030.4hPa West 9.0mph /  14.5km/h 9.0mph /  14.5km/h 82% 0.00in /  0mm
01:54 11.9 °F /  -11.2 °C 7.5 °F /  -13.6 °C 30.43in /  1030.4hPa West 5.0mph /  8km/h 13.0mph /  20.9km/h 82% 0.00in /  0mm
01:59 11.9 °F /  -11.2 °C 7.5 °F /  -13.6 °C 30.43in /  1030.4hPa West 10.0mph /  16.1km/h 15.0mph /  24.1km/h 82% 0.00in /  0mm
02:04 12.1 °F /  -11.1 °C 7.7 °F /  -13.5 °C 30.43in /  1030.4hPa West 7.0mph /  11.3km/h 15.0mph /  24.1km/h 82% 0.00in /  0mm
02:14 12.3 °F /  -10.9 °C 7.6 °F /  -13.6 °C 30.43in /  1030.4hPa West 5.0mph /  8km/h 10.0mph /  16.1km/h 81% 0.00in /  0mm
02:19 12.3 °F /  -10.9 °C 7.6 °F /  -13.6 °C 30.43in /  1030.4hPa West 5.0mph /  8km/h 9.0mph /  14.5km/h 81% 0.00in /  0mm
02:24 12.4 °F /  -10.9 °C 7.7 °F /  -13.5 °C 30.43in /  1030.4hPa West 5.0mph /  8km/h 10.0mph /  16.1km/h 81% 0.00in /  0mm
02:34 12.6 °F /  -10.8 °C 7.9 °F /  -13.4 °C 30.43in /  1030.4hPa WNW 3.0mph /  4.8km/h 7.0mph /  11.3km/h 81% 0.00in /  0mm
02:49 12.8 °F /  -10.7 °C 7.8 °F /  -13.4 °C 30.44in /  1030.7hPa West 5.0mph /  8km/h 7.0mph /  11.3km/h 80% 0.00in /  0mm
02:54 12.9 °F /  -10.6 °C 7.9 °F /  -13.4 °C 30.44in /  1030.7hPa West 7.0mph /  11.3km/h 11.0mph /  17.7km/h 80% 0.00in /  0mm
02:59 13.0 °F /  -10.6 °C 8.0 °F /  -13.3 °C 30.43in /  1030.4hPa WSW 4.0mph /  6.4km/h 11.0mph /  17.7km/h 80% 0.00in /  0mm
03:09 13.3 °F /  -10.4 °C 8.0 °F /  -13.3 °C 30.44in /  1030.7hPa WNW 8.0mph /  12.9km/h 9.0mph /  14.5km/h 79% 0.00in /  0mm
03:14 13.3 °F /  -10.4 °C 8.0 °F /  -13.3 °C 30.43in /  1030.4hPa West 6.0mph /  9.7km/h 13.0mph /  20.9km/h 79% 0.00in /  0mm
03:24 13.5 °F /  -10.3 °C 7.9 °F /  -13.4 °C 30.43in /  1030.4hPa West 7.0mph /  11.3km/h 14.0mph /  22.5km/h 78% 0.00in /  0mm
03:29 13.5 °F /  -10.3 °C 7.9 °F /  -13.4 °C 30.43in /  1030.4hPa West 7.0mph /  11.3km/h 15.0mph /  24.1km/h 78% 0.00in /  0mm
03:34 13.5 °F /  -10.3 °C 7.9 °F /  -13.4 °C 30.43in /  1030.4hPa West 7.0mph /  11.3km/h 15.0mph /  24.1km/h 78% 0.00in /  0mm
03:45 13.6 °F /  -10.2 °C 8.0 °F /  -13.3 °C 30.43in /  1030.4hPa West 9.0mph /  14.5km/h 12.0mph /  19.3km/h 78% 0.00in /  0mm
03:54 13.6 °F /  -10.2 °C 7.7 °F /  -13.5 °C 30.43in /  1030.4hPa West 8.0mph /  12.9km/h 17.0mph /  27.4km/h 77% 0.00in /  0mm
03:59 13.6 °F /  -10.2 °C 7.7 °F /  -13.5 °C 30.43in /  1030.4hPa WSW 5.0mph /  8km/h 14.0mph /  22.5km/h 77% 0.00in /  0mm
04:04 13.6 °F /  -10.2 °C 7.7 °F /  -13.5 °C 30.43in /  1030.4hPa West 6.0mph /  9.7km/h 12.0mph /  19.3km/h 77% 0.00in /  0mm
04:09 13.6 °F /  -10.2 °C 7.7 °F /  -13.5 °C 30.43in /  1030.4hPa West 7.0mph /  11.3km/h 15.0mph /  24.1km/h 77% 0.00in /  0mm
04:19 13.5 °F /  -10.3 °C 7.6 °F /  -13.6 °C 30.43in /  1030.4hPa West 6.0mph /  9.7km/h 13.0mph /  20.9km/h 77% 0.00in /  0mm
04:29 13.4 °F /  -10.3 °C 7.5 °F /  -13.6 °C 30.43in /  1030.4hPa West 7.0mph /  11.3km/h 16.0mph /  25.7km/h 77% 0.00in /  0mm
04:34 13.4 °F /  -10.3 °C 7.5 °F /  -13.6 °C 30.43in /  1030.4hPa West 8.0mph /  12.9km/h 17.0mph /  27.4km/h 77% 0.00in /  0mm
04:49 13.2 °F /  -10.4 °C 7.0 °F /  -13.9 °C 30.43in /  1030.4hPa West 8.0mph /  12.9km/h 19.0mph /  30.6km/h 76% 0.00in /  0mm
04:54 13.2 °F /  -10.4 °C 7.0 °F /  -13.9 °C 30.43in /  1030.4hPa West 9.0mph /  14.5km/h 20.0mph /  32.2km/h 76% 0.00in /  0mm
05:04 12.9 °F /  -10.6 °C 6.8 °F /  -14 °C 30.43in /  1030.4hPa West 12.0mph /  19.3km/h 17.0mph /  27.4km/h 76% 0.00in /  0mm
05:09 12.9 °F /  -10.6 °C 6.8 °F /  -14 °C 30.42in /  1030hPa West 5.0mph /  8km/h 15.0mph /  24.1km/h 76% 0.00in /  0mm
05:14 12.8 °F /  -10.7 °C 6.7 °F /  -14.1 °C 30.43in /  1030.4hPa WNW 4.0mph /  6.4km/h 14.0mph /  22.5km/h 76% 0.00in /  0mm
05:24 12.7 °F /  -10.7 °C 6.6 °F /  -14.1 °C 30.42in /  1030hPa West 8.0mph /  12.9km/h 16.0mph /  25.7km/h 76% 0.00in /  0mm
05:29 12.8 °F /  -10.7 °C 6.9 °F /  -13.9 °C 30.42in /  1030hPa West 9.0mph /  14.5km/h 16.0mph /  25.7km/h 77% 0.00in /  0mm
05:39 12.8 °F /  -10.7 °C 6.9 °F /  -13.9 °C 30.42in /  1030hPa West 8.0mph /  12.9km/h 16.0mph /  25.7km/h 77% 0.00in /  0mm
05:44 12.8 °F /  -10.7 °C 6.9 °F /  -13.9 °C 30.42in /  1030hPa WNW 8.0mph /  12.9km/h 14.0mph /  22.5km/h 77% 0.00in /  0mm
05:49 12.9 °F /  -10.6 °C 7.0 °F /  -13.9 °C 30.42in /  1030hPa West 8.0mph /  12.9km/h 14.0mph /  22.5km/h 77% 0.00in /  0mm
05:54 13.0 °F /  -10.6 °C 7.1 °F /  -13.8 °C 30.42in /  1030hPa West 7.0mph /  11.3km/h 13.0mph /  20.9km/h 77% 0.00in /  0mm
05:59 13.0 °F /  -10.6 °C 7.1 °F /  -13.8 °C 30.42in /  1030hPa West 8.0mph /  12.9km/h 17.0mph /  27.4km/h 77% 0.00in /  0mm
06:04 13.2 °F /  -10.4 °C 7.3 °F /  -13.7 °C 30.42in /  1030hPa West 7.0mph /  11.3km/h 17.0mph /  27.4km/h 77% 0.00in /  0mm
06:14 13.3 °F /  -10.4 °C 7.4 °F /  -13.7 °C 30.42in /  1030hPa West 5.0mph /  8km/h 15.0mph /  24.1km/h 77% 0.00in /  0mm
06:19 13.4 °F /  -10.3 °C 7.5 °F /  -13.6 °C 30.42in /  1030hPa WNW 7.0mph /  11.3km/h 14.0mph /  22.5km/h 77% 0.00in /  0mm
06:24 13.5 °F /  -10.3 °C 7.6 °F /  -13.6 °C 30.41in /  1029.7hPa West 7.0mph /  11.3km/h 14.0mph /  22.5km/h 77% 0.00in /  0mm
06:29 13.6 °F /  -10.2 °C 7.7 °F /  -13.5 °C 30.41in /  1029.7hPa West 7.0mph /  11.3km/h 11.0mph /  17.7km/h 77% 0.00in /  0mm
06:34 13.7 °F /  -10.2 °C 7.8 °F /  -13.4 °C 30.41in /  1029.7hPa West 6.0mph /  9.7km/h 11.0mph /  17.7km/h 77% 0.00in /  0mm
06:44 13.9 °F /  -10.1 °C 8.0 °F /  -13.3 °C 30.41in /  1029.7hPa West 5.0mph /  8km/h 13.0mph /  20.9km/h 77% 0.00in /  0mm
06:59 14.1 °F /  -9.9 °C 8.5 °F /  -13.1 °C 30.41in /  1029.7hPa West 6.0mph /  9.7km/h 13.0mph /  20.9km/h 78% 0.00in /  0mm
07:04 14.3 °F /  -9.8 °C 8.7 °F /  -12.9 °C 30.41in /  1029.7hPa West 9.0mph /  14.5km/h 11.0mph /  17.7km/h 78% 0.00in /  0mm
07:14 14.5 °F /  -9.7 °C 9.2 °F /  -12.7 °C 30.40in /  1029.3hPa SSW 3.0mph /  4.8km/h 13.0mph /  20.9km/h 79% 0.00in /  0mm
07:19 14.6 °F /  -9.7 °C 9.3 °F /  -12.6 °C 30.40in /  1029.3hPa WSW 8.0mph /  12.9km/h 12.0mph /  19.3km/h 79% 0.00in /  0mm
07:24 14.7 °F /  -9.6 °C 9.4 °F /  -12.6 °C 30.40in /  1029.3hPa West 7.0mph /  11.3km/h 11.0mph /  17.7km/h 79% 0.00in /  0mm
07:29 14.8 °F /  -9.6 °C 9.5 °F /  -12.5 °C 30.40in /  1029.3hPa WNW 6.0mph /  9.7km/h 13.0mph /  20.9km/h 79% 0.00in /  0mm
07:34 14.9 °F /  -9.5 °C 9.6 °F /  -12.4 °C 30.40in /  1029.3hPa West 6.0mph /  9.7km/h 13.0mph /  20.9km/h 79% 0.00in /  0mm
07:39 15.0 °F /  -9.4 °C 9.7 °F /  -12.4 °C 30.40in /  1029.3hPa West 7.0mph /  11.3km/h 14.0mph /  22.5km/h 79% 0.00in /  0mm
07:44 15.2 °F /  -9.3 °C 9.9 °F /  -12.3 °C 30.40in /  1029.3hPa West 7.0mph /  11.3km/h 14.0mph /  22.5km/h 79% 0.00in /  0mm
07:49 15.5 °F /  -9.2 °C 10.4 °F /  -12 °C 30.40in /  1029.3hPa West 7.0mph /  11.3km/h 14.0mph /  22.5km/h 80% 0.00in /  0mm
07:54 15.8 °F /  -9 °C 10.4 °F /  -12 °C 30.40in /  1029.3hPa West 9.0mph /  14.5km/h 18.0mph /  29km/h 79% 0.00in /  0mm
07:59 16.0 °F /  -8.9 °C 10.6 °F /  -11.9 °C 30.40in /  1029.3hPa West 11.0mph /  17.7km/h 23.0mph /  37km/h 79% 0.00in /  0mm
08:09 15.4 °F /  -9.2 °C 9.8 °F /  -12.3 °C 30.41in /  1029.7hPa West 9.0mph /  14.5km/h 16.0mph /  25.7km/h 78% 0.00in /  0mm
08:14 14.8 °F /  -9.6 °C 9.2 °F /  -12.7 °C 30.41in /  1029.7hPa West 7.0mph /  11.3km/h 16.0mph /  25.7km/h 78% 0.00in /  0mm
08:19 14.4 °F /  -9.8 °C 8.8 °F /  -12.9 °C 30.40in /  1029.3hPa NNW 13.0mph /  20.9km/h 13.0mph /  20.9km/h 78% 0.00in /  0mm
08:24 14.1 °F /  -9.9 °C 8.5 °F /  -13.1 °C 30.39in /  1029hPa West 4.0mph /  6.4km/h 14.0mph /  22.5km/h 78% 0.00in /  0mm
08:29 14.0 °F /  -10 °C 8.4 °F /  -13.1 °C 30.39in /  1029hPa West 6.0mph /  9.7km/h 11.0mph /  17.7km/h 78% 0.00in /  0mm
08:34 13.9 °F /  -10.1 °C 8.3 °F /  -13.2 °C 30.40in /  1029.3hPa West 6.0mph /  9.7km/h 11.0mph /  17.7km/h 78% 0.00in /  0mm
08:44 14.0 °F /  -10 °C 8.4 °F /  -13.1 °C 30.39in /  1029hPa West 6.0mph /  9.7km/h 14.0mph /  22.5km/h 78% 0.00in /  0mm
08:45 14.0 °F /  -10 °C 8.4 °F /  -13.1 °C 30.39in /  1029hPa West 5.0mph /  8km/h 11.0mph /  17.7km/h 78% 0.00in /  0mm
08:59 14.4 °F /  -9.8 °C 9.1 °F /  -12.7 °C 30.38in /  1028.7hPa West 6.0mph /  9.7km/h 11.0mph /  17.7km/h 79% 0.00in /  0mm
09:04 14.5 °F /  -9.7 °C 9.2 °F /  -12.7 °C 30.38in /  1028.7hPa West 5.0mph /  8km/h 11.0mph /  17.7km/h 79% 0.00in /  0mm
09:09 14.7 °F /  -9.6 °C 9.6 °F /  -12.4 °C 30.38in /  1028.7hPa West 6.0mph /  9.7km/h 13.0mph /  20.9km/h 80% 0.00in /  0mm
09:14 14.8 °F /  -9.6 °C 9.7 °F /  -12.4 °C 30.38in /  1028.7hPa WSW 11.0mph /  17.7km/h 14.0mph /  22.5km/h 80% 0.00in /  0mm
09:19 14.8 °F /  -9.6 °C 9.5 °F /  -12.5 °C 30.38in /  1028.7hPa West 7.0mph /  11.3km/h 14.0mph /  22.5km/h 79% 0.00in /  0mm
09:24 15.0 °F /  -9.4 °C 9.9 °F /  -12.3 °C 30.38in /  1028.7hPa WSW 5.0mph /  8km/h 11.0mph /  17.7km/h 80% 0.00in /  0mm
09:29 15.1 °F /  -9.4 °C 10.0 °F /  -12.2 °C 30.38in /  1028.7hPa WSW 7.0mph /  11.3km/h 11.0mph /  17.7km/h 80% 0.00in /  0mm
09:39 15.5 °F /  -9.2 °C 10.7 °F /  -11.8 °C 30.36in /  1028hPa South 5.0mph /  8km/h 12.0mph /  19.3km/h 81% 0.00in /  0mm
09:45 16.1 °F /  -8.8 °C 11.3 °F /  -11.5 °C 30.37in /  1028.3hPa WSW 7.0mph /  11.3km/h 17.0mph /  27.4km/h 81% 0.00in /  0mm
09:54 16.5 °F /  -8.6 °C 12.0 °F /  -11.1 °C 30.36in /  1028hPa SSW 9.0mph /  14.5km/h 21.0mph /  33.8km/h 82% 0.00in /  0mm
09:59 16.3 °F /  -8.7 °C 12.0 °F /  -11.1 °C 30.37in /  1028.3hPa SSW 8.0mph /  12.9km/h 20.0mph /  32.2km/h 83% 0.00in /  0mm
10:04 16.1 °F /  -8.8 °C 11.8 °F /  -11.2 °C 30.37in /  1028.3hPa SSW 9.0mph /  14.5km/h 20.0mph /  32.2km/h 83% 0.00in /  0mm
10:09 15.9 °F /  -8.9 °C 11.7 °F /  -11.3 °C 30.37in /  1028.3hPa SSW 9.0mph /  14.5km/h 23.0mph /  37km/h 83% 0.00in /  0mm
10:14 15.8 °F /  -9 °C 11.8 °F /  -11.2 °C 30.37in /  1028.3hPa SSW 9.0mph /  14.5km/h 23.0mph /  37km/h 84% 0.00in /  0mm
10:19 15.7 °F /  -9.1 °C 11.7 °F /  -11.3 °C 30.37in /  1028.3hPa SW 11.0mph /  17.7km/h 18.0mph /  29km/h 84% 0.00in /  0mm
10:24 15.7 °F /  -9.1 °C 12.0 °F /  -11.1 °C 30.37in /  1028.3hPa South 5.0mph /  8km/h 15.0mph /  24.1km/h 85% 0.00in /  0mm
10:29 15.8 °F /  -9 °C 12.1 °F /  -11.1 °C 30.37in /  1028.3hPa SSW 8.0mph /  12.9km/h 21.0mph /  33.8km/h 85% 0.00in /  0mm
10:34 16.9 °F /  -8.4 °C 13.4 °F /  -10.3 °C 30.36in /  1028hPa SSW 16.0mph /  25.7km/h 18.0mph /  29km/h 86% 0.00in /  0mm
10:39 17.4 °F /  -8.1 °C 13.9 °F /  -10.1 °C 30.37in /  1028.3hPa SW 10.0mph /  16.1km/h 21.0mph /  33.8km/h 86% 0.00in /  0mm
10:44 17.5 °F /  -8.1 °C 14.0 °F /  -10 °C 30.36in /  1028hPa SW 10.0mph /  16.1km/h 25.0mph /  40.2km/h 86% 0.00in /  0mm
10:49 17.5 °F /  -8.1 °C 14.0 °F /  -10 °C 30.36in /  1028hPa West 14.0mph /  22.5km/h 25.0mph /  40.2km/h 86% 0.00in /  0mm
10:54 17.5 °F /  -8.1 °C 14.0 °F /  -10 °C 30.35in /  1027.7hPa SW 22.0mph /  35.4km/h 26.0mph /  41.8km/h 86% 0.00in /  0mm
10:59 17.5 °F /  -8.1 °C 14.0 °F /  -10 °C 30.35in /  1027.7hPa WSW 22.0mph /  35.4km/h 22.0mph /  35.4km/h 86% 0.00in /  0mm
11:04 17.5 °F /  -8.1 °C 14.3 °F /  -9.8 °C 30.35in /  1027.7hPa SW 13.0mph /  20.9km/h 27.0mph /  43.5km/h 87% 0.00in /  0mm
11:09 17.4 °F /  -8.1 °C 14.2 °F /  -9.9 °C 30.35in /  1027.7hPa SW 14.0mph /  22.5km/h 27.0mph /  43.5km/h 87% 0.00in /  0mm
11:14 17.4 °F /  -8.1 °C 14.2 °F /  -9.9 °C 30.35in /  1027.7hPa SW 13.0mph /  20.9km/h 22.0mph /  35.4km/h 87% 0.00in /  0mm
11:19 17.4 °F /  -8.1 °C 14.2 °F /  -9.9 °C 30.34in /  1027.3hPa SW 13.0mph /  20.9km/h 26.0mph /  41.8km/h 87% 0.00in /  0mm
11:24 17.5 °F /  -8.1 °C 14.3 °F /  -9.8 °C 30.34in /  1027.3hPa West 15.0mph /  24.1km/h 30.0mph /  48.3km/h 87% 0.00in /  0mm
11:25 17.5 °F /  -8.1 °C 14.3 °F /  -9.8 °C 30.34in /  1027.3hPa SW 14.0mph /  22.5km/h 30.0mph /  48.3km/h 87% 0.00in /  0mm
11:34 17.4 °F /  -8.1 °C 14.2 °F /  -9.9 °C 30.33in /  1027hPa SSE 19.0mph /  30.6km/h 22.0mph /  35.4km/h 87% 0.00in /  0mm
11:39 17.5 °F /  -8.1 °C 14.3 °F /  -9.8 °C 30.33in /  1027hPa SSW 16.0mph /  25.7km/h 24.0mph /  38.6km/h 87% 0.00in /  0mm
11:44 17.4 °F /  -8.1 °C 14.2 °F /  -9.9 °C 30.33in /  1027hPa SSW 8.0mph /  12.9km/h 21.0mph /  33.8km/h 87% 0.00in /  0mm
11:49 17.4 °F /  -8.1 °C 14.2 °F /  -9.9 °C 30.32in /  1026.6hPa SW 12.0mph /  19.3km/h 25.0mph /  40.2km/h 87% 0.00in /  0mm
11:54 17.4 °F /  -8.1 °C 14.2 °F /  -9.9 °C 30.32in /  1026.6hPa SW 11.0mph /  17.7km/h 21.0mph /  33.8km/h 87% 0.00in /  0mm
12:05 17.4 °F /  -8.1 °C 14.2 °F /  -9.9 °C 30.31in /  1026.3hPa SW 13.0mph /  20.9km/h 29.0mph /  46.7km/h 87% 0.00in /  0mm
12:14 17.3 °F /  -8.2 °C 14.1 °F /  -9.9 °C 30.31in /  1026.3hPa SW 13.0mph /  20.9km/h 22.0mph /  35.4km/h 87% 0.00in /  0mm
12:19 17.2 °F /  -8.2 °C 14.0 °F /  -10 °C 30.31in /  1026.3hPa SW 13.0mph /  20.9km/h 23.0mph /  37km/h 87% 0.00in /  0mm
12:24 17.2 °F /  -8.2 °C 14.0 °F /  -10 °C 30.30in /  1026hPa SW 19.0mph /  30.6km/h 22.0mph /  35.4km/h 87% 0.00in /  0mm
12:29 17.3 °F /  -8.2 °C 14.4 °F /  -9.8 °C 30.30in /  1026hPa SSW 10.0mph /  16.1km/h 25.0mph /  40.2km/h 88% 0.00in /  0mm
12:34 17.3 °F /  -8.2 °C 14.4 °F /  -9.8 °C 30.30in /  1026hPa SW 13.0mph /  20.9km/h 32.0mph /  51.5km/h 88% 0.00in /  0mm
12:44 17.3 °F /  -8.2 °C 14.4 °F /  -9.8 °C 30.30in /  1026hPa WSW 7.0mph /  11.3km/h 23.0mph /  37km/h 88% 0.00in /  0mm
12:49 17.2 °F /  -8.2 °C 14.3 °F /  -9.8 °C 30.29in /  1025.6hPa SW 13.0mph /  20.9km/h 27.0mph /  43.5km/h 88% 0.00in /  0mm
12:54 17.2 °F /  -8.2 °C 14.3 °F /  -9.8 °C 30.29in /  1025.6hPa SW 13.0mph /  20.9km/h 27.0mph /  43.5km/h 88% 0.00in /  0mm
13:09 17.3 °F /  -8.2 °C 14.4 °F /  -9.8 °C 30.29in /  1025.6hPa SW 16.0mph /  25.7km/h 26.0mph /  41.8km/h 88% 0.00in /  0mm
13:14 17.4 °F /  -8.1 °C 14.5 °F /  -9.7 °C 30.29in /  1025.6hPa SW 13.0mph /  20.9km/h 28.0mph /  45.1km/h 88% 0.00in /  0mm
13:19 17.5 °F /  -8.1 °C 14.6 °F /  -9.7 °C 30.28in /  1025.3hPa SW 14.0mph /  22.5km/h 29.0mph /  46.7km/h 88% 0.00in /  0mm
13:24 17.5 °F /  -8.1 °C 14.6 °F /  -9.7 °C 30.28in /  1025.3hPa SW 14.0mph /  22.5km/h 29.0mph /  46.7km/h 88% 0.00in /  0mm
13:29 17.5 °F /  -8.1 °C 14.6 °F /  -9.7 °C 30.29in /  1025.6hPa SW 13.0mph /  20.9km/h 26.0mph /  41.8km/h 88% 0.00in /  0mm
13:34 17.3 °F /  -8.2 °C 14.4 °F /  -9.8 °C 30.28in /  1025.3hPa SW 12.0mph /  19.3km/h 22.0mph /  35.4km/h 88% 0.00in /  0mm
13:39 17.2 °F /  -8.2 °C 14.3 °F /  -9.8 °C 30.28in /  1025.3hPa SW 13.0mph /  20.9km/h 26.0mph /  41.8km/h 88% 0.00in /  0mm
13:44 17.2 °F /  -8.2 °C 14.3 °F /  -9.8 °C 30.28in /  1025.3hPa SW 13.0mph /  20.9km/h 26.0mph /  41.8km/h 88% 0.00in /  0mm
13:49 17.2 °F /  -8.2 °C 14.3 °F /  -9.8 °C 30.28in /  1025.3hPa WSW 14.0mph /  22.5km/h 25.0mph /  40.2km/h 88% 0.00in /  0mm
13:54 17.2 °F /  -8.2 °C 14.3 °F /  -9.8 °C 30.28in /  1025.3hPa SW 13.0mph /  20.9km/h 25.0mph /  40.2km/h 88% 0.00in /  0mm
14:04 17.2 °F /  -8.2 °C 14.3 °F /  -9.8 °C 30.27in /  1024.9hPa SW 11.0mph /  17.7km/h 22.0mph /  35.4km/h 88% 0.00in /  0mm
14:09 17.2 °F /  -8.2 °C 14.3 °F /  -9.8 °C 30.28in /  1025.3hPa SW 13.0mph /  20.9km/h 31.0mph /  49.9km/h 88% 0.00in /  0mm
14:24 17.2 °F /  -8.2 °C 14.3 °F /  -9.8 °C 30.27in /  1024.9hPa SW 15.0mph /  24.1km/h 24.0mph /  38.6km/h 88% 0.00in /  0mm
14:29 17.3 °F /  -8.2 °C 14.4 °F /  -9.8 °C 30.28in /  1025.3hPa SW 13.0mph /  20.9km/h 24.0mph /  38.6km/h 88% 0.00in /  0mm
14:34 17.4 °F /  -8.1 °C 14.5 °F /  -9.7 °C 30.27in /  1024.9hPa SW 15.0mph /  24.1km/h 27.0mph /  43.5km/h 88% 0.00in /  0mm
14:39 17.5 °F /  -8.1 °C 14.6 °F /  -9.7 °C 30.27in /  1024.9hPa SW 16.0mph /  25.7km/h 27.0mph /  43.5km/h 88% 0.00in /  0mm
14:44 17.4 °F /  -8.1 °C 14.5 °F /  -9.7 °C 30.27in /  1024.9hPa SW 16.0mph /  25.7km/h 26.0mph /  41.8km/h 88% 0.00in /  0mm
14:49 17.1 °F /  -8.3 °C 14.2 °F /  -9.9 °C 30.27in /  1024.9hPa SW 11.0mph /  17.7km/h 22.0mph /  35.4km/h 88% 0.00in /  0mm
14:54 16.9 °F /  -8.4 °C 14.0 °F /  -10 °C 30.27in /  1024.9hPa SW 32.0mph /  51.5km/h 34.0mph /  54.7km/h 88% 0.00in /  0mm
14:59 16.6 °F /  -8.6 °C 13.7 °F /  -10.2 °C 30.27in /  1024.9hPa WSW 13.0mph /  20.9km/h 26.0mph /  41.8km/h 88% 0.00in /  0mm
15:04 16.3 °F /  -8.7 °C 13.4 °F /  -10.3 °C 30.27in /  1024.9hPa SW 14.0mph /  22.5km/h 32.0mph /  51.5km/h 88% 0.00in /  0mm
15:09 16.2 °F /  -8.8 °C 13.3 °F /  -10.4 °C 30.27in /  1024.9hPa SW 14.0mph /  22.5km/h 26.0mph /  41.8km/h 88% 0.00in /  0mm
15:14 16.2 °F /  -8.8 °C 13.3 °F /  -10.4 °C 30.27in /  1024.9hPa SW 12.0mph /  19.3km/h 25.0mph /  40.2km/h 88% 0.00in /  0mm
15:19 16.0 °F /  -8.9 °C 13.1 °F /  -10.5 °C 30.28in /  1025.3hPa SW 13.0mph /  20.9km/h 26.0mph /  41.8km/h 88% 0.00in /  0mm
15:24 15.9 °F /  -8.9 °C 13.0 °F /  -10.6 °C 30.28in /  1025.3hPa SW 15.0mph /  24.1km/h 27.0mph /  43.5km/h 88% 0.00in /  0mm
15:29 15.9 °F /  -8.9 °C 13.0 °F /  -10.6 °C 30.28in /  1025.3hPa SW 10.0mph /  16.1km/h 23.0mph /  37km/h 88% 0.00in /  0mm
15:40 16.0 °F /  -8.9 °C 13.1 °F /  -10.5 °C 30.28in /  1025.3hPa SW 14.0mph /  22.5km/h 29.0mph /  46.7km/h 88% 0.00in /  0mm
15:49 15.8 °F /  -9 °C 12.9 °F /  -10.6 °C 30.28in /  1025.3hPa SW 9.0mph /  14.5km/h 22.0mph /  35.4km/h 88% 0.00in /  0mm
15:54 15.8 °F /  -9 °C 12.9 °F /  -10.6 °C 30.28in /  1025.3hPa SW 12.0mph /  19.3km/h 28.0mph /  45.1km/h 88% 0.00in /  0mm
15:59 15.9 °F /  -8.9 °C 13.0 °F /  -10.6 °C 30.28in /  1025.3hPa SW 13.0mph /  20.9km/h 28.0mph /  45.1km/h 88% 0.00in /  0mm
16:04 15.9 °F /  -8.9 °C 13.0 °F /  -10.6 °C 30.28in /  1025.3hPa SW 15.0mph /  24.1km/h 25.0mph /  40.2km/h 88% 0.00in /  0mm
16:09 15.8 °F /  -9 °C 12.9 °F /  -10.6 °C 30.28in /  1025.3hPa South 9.0mph /  14.5km/h 28.0mph /  45.1km/h 88% 0.00in /  0mm
16:14 15.8 °F /  -9 °C 12.9 °F /  -10.6 °C 30.28in /  1025.3hPa SW 13.0mph /  20.9km/h 28.0mph /  45.1km/h 88% 0.00in /  0mm
16:19 15.8 °F /  -9 °C 12.9 °F /  -10.6 °C 30.28in /  1025.3hPa SW 13.0mph /  20.9km/h 25.0mph /  40.2km/h 88% 0.00in /  0mm
16:29 15.9 °F /  -8.9 °C 13.0 °F /  -10.6 °C 30.28in /  1025.3hPa SW 14.0mph /  22.5km/h 25.0mph /  40.2km/h 88% 0.00in /  0mm
16:39 15.8 °F /  -9 °C 12.9 °F /  -10.6 °C 30.27in /  1024.9hPa SW 13.0mph /  20.9km/h 27.0mph /  43.5km/h 88% 0.00in /  0mm
16:44 15.6 °F /  -9.1 °C 12.7 °F /  -10.7 °C 30.27in /  1024.9hPa WSW 17.0mph /  27.4km/h 23.0mph /  37km/h 88% 0.00in /  0mm
16:49 15.6 °F /  -9.1 °C 12.7 °F /  -10.7 °C 30.27in /  1024.9hPa SW 11.0mph /  17.7km/h 23.0mph /  37km/h 88% 0.00in /  0mm
16:54 15.7 °F /  -9.1 °C 12.8 °F /  -10.7 °C 30.27in /  1024.9hPa SW 11.0mph /  17.7km/h 21.0mph /  33.8km/h 88% 0.00in /  0mm
16:59 15.8 °F /  -9 °C 12.9 °F /  -10.6 °C 30.27in /  1024.9hPa SW 11.0mph /  17.7km/h 18.0mph /  29km/h 88% 0.00in /  0mm
17:04 15.7 °F /  -9.1 °C 12.5 °F /  -10.8 °C 30.27in /  1024.9hPa SW 10.0mph /  16.1km/h 20.0mph /  32.2km/h 87% 0.00in /  0mm
17:09 15.5 °F /  -9.2 °C 12.3 °F /  -10.9 °C 30.26in /  1024.6hPa SSW 5.0mph /  8km/h 24.0mph /  38.6km/h 87% 0.00in /  0mm
17:14 15.4 °F /  -9.2 °C 12.2 °F /  -11 °C 30.27in /  1024.9hPa SSW 6.0mph /  9.7km/h 22.0mph /  35.4km/h 87% 0.00in /  0mm
17:19 15.3 °F /  -9.3 °C 12.1 °F /  -11.1 °C 30.27in /  1024.9hPa WSW 21.0mph /  33.8km/h 29.0mph /  46.7km/h 87% 0.00in /  0mm
17:24 15.3 °F /  -9.3 °C 12.1 °F /  -11.1 °C 30.27in /  1024.9hPa SW 12.0mph /  19.3km/h 29.0mph /  46.7km/h 87% 0.00in /  0mm
17:29 15.3 °F /  -9.3 °C 12.1 °F /  -11.1 °C 30.26in /  1024.6hPa SW 12.0mph /  19.3km/h 22.0mph /  35.4km/h 87% 0.00in /  0mm
17:44 15.4 °F /  -9.2 °C 12.2 °F /  -11 °C 30.26in /  1024.6hPa SW 12.0mph /  19.3km/h 26.0mph /  41.8km/h 87% 0.00in /  0mm
17:49 15.4 °F /  -9.2 °C 12.2 °F /  -11 °C 30.26in /  1024.6hPa SSW 4.0mph /  6.4km/h 24.0mph /  38.6km/h 87% 0.00in /  0mm
17:50 15.4 °F /  -9.2 °C 12.2 °F /  -11 °C 30.26in /  1024.6hPa SSW 11.0mph /  17.7km/h 26.0mph /  41.8km/h 87% 0.00in /  0mm
17:59 15.4 °F /  -9.2 °C 12.0 °F /  -11.1 °C 30.26in /  1024.6hPa SSW 9.0mph /  14.5km/h 18.0mph /  29km/h 86% 0.00in /  0mm
18:04 15.2 °F /  -9.3 °C 11.8 °F /  -11.2 °C 30.25in /  1024.3hPa SSW 9.0mph /  14.5km/h 21.0mph /  33.8km/h 86% 0.00in /  0mm
18:09 15.1 °F /  -9.4 °C 11.7 °F /  -11.3 °C 30.25in /  1024.3hPa SW 12.0mph /  19.3km/h 17.0mph /  27.4km/h 86% 0.00in /  0mm
18:14 15.0 °F /  -9.4 °C 11.6 °F /  -11.3 °C 30.26in /  1024.6hPa SSW 8.0mph /  12.9km/h 17.0mph /  27.4km/h 86% 0.00in /  0mm
18:19 14.9 °F /  -9.5 °C 11.2 °F /  -11.6 °C 30.26in /  1024.6hPa West 8.0mph /  12.9km/h 16.0mph /  25.7km/h 85% 0.00in /  0mm
18:24 14.9 °F /  -9.5 °C 11.2 °F /  -11.6 °C 30.26in /  1024.6hPa South 7.0mph /  11.3km/h 18.0mph /  29km/h 85% 0.00in /  0mm
18:29 14.9 °F /  -9.5 °C 11.2 °F /  -11.6 °C 30.27in /  1024.9hPa SSE 5.0mph /  8km/h 12.0mph /  19.3km/h 85% 0.00in /  0mm
18:39 14.8 °F /  -9.6 °C 11.1 °F /  -11.6 °C 30.26in /  1024.6hPa SSW 8.0mph /  12.9km/h 15.0mph /  24.1km/h 85% 0.00in /  0mm
18:44 14.8 °F /  -9.6 °C 11.1 °F /  -11.6 °C 30.26in /  1024.6hPa SSW 8.0mph /  12.9km/h 15.0mph /  24.1km/h 85% 0.00in /  0mm
18:49 14.7 °F /  -9.6 °C 10.7 °F /  -11.8 °C 30.27in /  1024.9hPa SSW 8.0mph /  12.9km/h 17.0mph /  27.4km/h 84% 0.00in /  0mm
18:54 14.8 °F /  -9.6 °C 10.8 °F /  -11.8 °C 30.27in /  1024.9hPa SSW 8.0mph /  12.9km/h 17.0mph /  27.4km/h 84% 0.00in /  0mm
18:59 14.7 °F /  -9.6 °C 10.7 °F /  -11.8 °C 30.27in /  1024.9hPa SW 11.0mph /  17.7km/h 17.0mph /  27.4km/h 84% 0.00in /  0mm
19:04 14.6 °F /  -9.7 °C 10.6 °F /  -11.9 °C 30.27in /  1024.9hPa SSW 15.0mph /  24.1km/h 17.0mph /  27.4km/h 84% 0.00in /  0mm
19:14 14.5 °F /  -9.7 °C 10.5 °F /  -11.9 °C 30.26in /  1024.6hPa SW 7.0mph /  11.3km/h 20.0mph /  32.2km/h 84% 0.00in /  0mm
19:19 14.5 °F /  -9.7 °C 10.5 °F /  -11.9 °C 30.26in /  1024.6hPa SW 7.0mph /  11.3km/h 20.0mph /  32.2km/h 84% 0.00in /  0mm
19:29 14.5 °F /  -9.7 °C 10.3 °F /  -12.1 °C 30.26in /  1024.6hPa SW 6.0mph /  9.7km/h 15.0mph /  24.1km/h 83% 0.00in /  0mm
19:34 14.5 °F /  -9.7 °C 10.3 °F /  -12.1 °C 30.26in /  1024.6hPa South 7.0mph /  11.3km/h 15.0mph /  24.1km/h 83% 0.00in /  0mm
19:44 14.4 °F /  -9.8 °C 10.2 °F /  -12.1 °C 30.26in /  1024.6hPa SSW 8.0mph /  12.9km/h 20.0mph /  32.2km/h 83% 0.00in /  0mm
19:49 14.3 °F /  -9.8 °C 9.8 °F /  -12.3 °C 30.26in /  1024.6hPa SSW 8.0mph /  12.9km/h 15.0mph /  24.1km/h 82% 0.00in /  0mm
19:59 14.2 °F /  -9.9 °C 9.7 °F /  -12.4 °C 30.26in /  1024.6hPa SSE 8.0mph /  12.9km/h 15.0mph /  24.1km/h 82% 0.00in /  0mm
20:04 14.1 °F /  -9.9 °C 9.6 °F /  -12.4 °C 30.25in /  1024.3hPa South 7.0mph /  11.3km/h 14.0mph /  22.5km/h 82% 0.00in /  0mm
20:14 14.0 °F /  -10 °C 9.5 °F /  -12.5 °C 30.25in /  1024.3hPa South 8.0mph /  12.9km/h 14.0mph /  22.5km/h 82% 0.00in /  0mm
20:19 14.0 °F /  -10 °C 9.5 °F /  -12.5 °C 30.25in /  1024.3hPa SSW 8.0mph /  12.9km/h 16.0mph /  25.7km/h 82% 0.00in /  0mm
20:24 13.9 °F /  -10.1 °C 9.1 °F /  -12.7 °C 30.25in /  1024.3hPa SSW 8.0mph /  12.9km/h 16.0mph /  25.7km/h 81% 0.00in /  0mm
20:34 13.9 °F /  -10.1 °C 9.1 °F /  -12.7 °C 30.25in /  1024.3hPa SSW 7.0mph /  11.3km/h 13.0mph /  20.9km/h 81% 0.00in /  0mm
20:39 13.9 °F /  -10.1 °C 9.1 °F /  -12.7 °C 30.25in /  1024.3hPa SW 6.0mph /  9.7km/h 13.0mph /  20.9km/h 81% 0.00in /  0mm
20:44 13.8 °F /  -10.1 °C 9.0 °F /  -12.8 °C 30.25in /  1024.3hPa South 9.0mph /  14.5km/h 16.0mph /  25.7km/h 81% 0.00in /  0mm
20:49 13.8 °F /  -10.1 °C 9.0 °F /  -12.8 °C 30.25in /  1024.3hPa WSW 8.0mph /  12.9km/h 15.0mph /  24.1km/h 81% 0.00in /  0mm
20:54 13.8 °F /  -10.1 °C 9.0 °F /  -12.8 °C 30.24in /  1023.9hPa SSW 7.0mph /  11.3km/h 15.0mph /  24.1km/h 81% 0.00in /  0mm
20:59 13.8 °F /  -10.1 °C 9.0 °F /  -12.8 °C 30.25in /  1024.3hPa SSW 7.0mph /  11.3km/h 18.0mph /  29km/h 81% 0.00in /  0mm
21:04 13.7 °F /  -10.2 °C 9.0 °F /  -12.8 °C 30.24in /  1023.9hPa SW 13.0mph /  20.9km/h 17.0mph /  27.4km/h 81% 0.00in /  0mm
21:14 13.7 °F /  -10.2 °C 9.0 °F /  -12.8 °C 30.24in /  1023.9hPa South 7.0mph /  11.3km/h 17.0mph /  27.4km/h 81% 0.00in /  0mm
21:19 13.7 °F /  -10.2 °C 9.0 °F /  -12.8 °C 30.24in /  1023.9hPa SSW 8.0mph /  12.9km/h 12.0mph /  19.3km/h 81% 0.00in /  0mm
21:24 13.6 °F /  -10.2 °C 8.9 °F /  -12.8 °C 30.24in /  1023.9hPa SSW 6.0mph /  9.7km/h 13.0mph /  20.9km/h 81% 0.00in /  0mm
21:29 13.6 °F /  -10.2 °C 8.9 °F /  -12.8 °C 30.24in /  1023.9hPa SSW 7.0mph /  11.3km/h 13.0mph /  20.9km/h 81% 0.00in /  0mm
21:34 13.5 °F /  -10.3 °C 8.8 °F /  -12.9 °C 30.24in /  1023.9hPa WSW 9.0mph /  14.5km/h 15.0mph /  24.1km/h 81% 0.00in /  0mm
21:35 13.5 °F /  -10.3 °C 8.8 °F /  -12.9 °C 30.24in /  1023.9hPa SSW 7.0mph /  11.3km/h 15.0mph /  24.1km/h 81% 0.00in /  0mm
21:44 13.6 °F /  -10.2 °C 8.6 °F /  -13 °C 30.23in /  1023.6hPa SSW 8.0mph /  12.9km/h 20.0mph /  32.2km/h 80% 0.00in /  0mm
21:59 13.9 °F /  -10.1 °C 8.9 °F /  -12.8 °C 30.23in /  1023.6hPa SSW 8.0mph /  12.9km/h 20.0mph /  32.2km/h 80% 0.00in /  0mm
22:15 13.9 °F /  -10.1 °C 8.9 °F /  -12.8 °C 30.23in /  1023.6hPa SSW 9.0mph /  14.5km/h 18.0mph /  29km/h 80% 0.00in /  0mm
22:24 13.7 °F /  -10.2 °C 8.4 °F /  -13.1 °C 30.24in /  1023.9hPa SW 12.0mph /  19.3km/h 16.0mph /  25.7km/h 79% 0.00in /  0mm
22:39 13.2 °F /  -10.4 °C 7.9 °F /  -13.4 °C 30.24in /  1023.9hPa SSW 9.0mph /  14.5km/h 21.0mph /  33.8km/h 79% 0.00in /  0mm
22:44 13.1 °F /  -10.5 °C 7.8 °F /  -13.4 °C 30.24in /  1023.9hPa SSW 8.0mph /  12.9km/h 21.0mph /  33.8km/h 79% 0.00in /  0mm
22:49 13.0 °F /  -10.6 °C 7.7 °F /  -13.5 °C 30.24in /  1023.9hPa SSW 8.0mph /  12.9km/h 16.0mph /  25.7km/h 79% 0.00in /  0mm
22:54 13.0 °F /  -10.6 °C 7.7 °F /  -13.5 °C 30.24in /  1023.9hPa SSW 8.0mph /  12.9km/h 15.0mph /  24.1km/h 79% 0.00in /  0mm
22:59 12.9 °F /  -10.6 °C 7.6 °F /  -13.6 °C 30.24in /  1023.9hPa SW 7.0mph /  11.3km/h 18.0mph /  29km/h 79% 0.00in /  0mm
23:04 12.8 °F /  -10.7 °C 7.5 °F /  -13.6 °C 30.24in /  1023.9hPa SW 7.0mph /  11.3km/h 18.0mph /  29km/h 79% 0.00in /  0mm
23:19 12.6 °F /  -10.8 °C 7.3 °F /  -13.7 °C 30.23in /  1023.6hPa SSW 9.0mph /  14.5km/h 18.0mph /  29km/h 79% 0.00in /  0mm
23:24 12.6 °F /  -10.8 °C 7.3 °F /  -13.7 °C 30.23in /  1023.6hPa SSW 9.0mph /  14.5km/h 18.0mph /  29km/h 79% 0.00in /  0mm
23:29 12.6 °F /  -10.8 °C 7.3 °F /  -13.7 °C 30.23in /  1023.6hPa SSW 7.0mph /  11.3km/h 18.0mph /  29km/h 79% 0.00in /  0mm
23:34 12.6 °F /  -10.8 °C 7.3 °F /  -13.7 °C 30.23in /  1023.6hPa WSW 11.0mph /  17.7km/h 20.0mph /  32.2km/h 79% 0.00in /  0mm
23:39 12.6 °F /  -10.8 °C 7.3 °F /  -13.7 °C 30.23in /  1023.6hPa SW 8.0mph /  12.9km/h 18.0mph /  29km/h 79% 0.00in /  0mm
23:44 12.6 °F /  -10.8 °C 7.3 °F /  -13.7 °C 30.23in /  1023.6hPa SSW 9.0mph /  14.5km/h 18.0mph /  29km/h 79% 0.00in /  0mm
23:59 12.3 °F /  -10.9 °C 6.7 °F /  -14.1 °C 30.23in /  1023.6hPa SSW 9.0mph /  14.5km/h 21.0mph /  33.8km/h 78% 0.00in /  0mm
Buffalo, New York, USA
Compliments of Weather Underground - 2 mb